Time;durP1;ratioP1;P1;durP2;ratioP2;P2;SDS_P1;SDS_P2;PMS_P1;PMS_P2;Temp;Humidity;BMP_temperature;BMP_pressure;BME280_temperature;BME280_humidity;BME280_pressure;Samples;Min_cycle;Max_cycle;Signal;HPM_P1;HPM_P2
2022/02/19 00:02:05;;;;;;;5.97;3.65;;;;;;;9.06;55.78;95677.30;1781271;79;26119;-92
2022/02/19 00:04:33;;;;;;;9.55;3.87;;;;;;;9.05;55.82;95686.43;1781128;79;25803;-93
2022/02/19 00:07:00;;;;;;;10.98;4.25;;;;;;;9.05;55.82;95698.54;1781258;79;27280;-92
2022/02/19 00:09:26;;;;;;;8.93;3.95;;;;;;;9.02;55.83;95699.31;1781115;79;25824;-93
2022/02/19 00:11:53;;;;;;;9.95;3.90;;;;;;;9.03;55.89;95703.63;1781113;79;25835;-91
2022/02/19 00:14:20;;;;;;;6.75;3.90;;;;;;;9.02;55.88;95694.45;1781010;79;25690;-94
2022/02/19 00:16:46;;;;;;;8.20;4.58;;;;;;;9.02;55.93;95684.50;1780888;78;25827;-94
2022/02/19 00:19:13;;;;;;;8.15;3.85;;;;;;;9.02;55.91;95687.20;1781058;79;27529;-92
2022/02/19 00:21:39;;;;;;;7.25;3.92;;;;;;;9.06;55.91;95679.98;1781139;79;25710;-94
2022/02/19 00:24:07;;;;;;;6.78;3.90;;;;;;;9.07;55.91;95686.97;1781226;79;26192;-92
2022/02/19 00:26:34;;;;;;;5.33;3.62;;;;;;;9.08;55.95;95675.97;1781129;79;25786;-92
2022/02/19 00:29:01;;;;;;;8.00;3.90;;;;;;;9.09;55.93;95680.83;1781188;79;25760;-92
2022/02/19 00:31:27;;;;;;;8.20;4.25;;;;;;;9.08;55.92;95692.65;1781041;79;27402;-93
2022/02/19 00:33:54;;;;;;;6.40;3.40;;;;;;;9.09;55.97;95688.90;1781084;79;25657;-92
2022/02/19 00:36:21;;;;;;;7.37;3.85;;;;;;;9.09;55.98;95692.41;1781200;79;25738;-93
2022/02/19 00:38:47;;;;;;;8.68;3.90;;;;;;;9.10;56.03;95687.84;1781259;79;26295;-93
2022/02/19 00:41:15;;;;;;;8.75;4.15;;;;;;;9.11;56.04;95693.52;1781132;79;25642;-96
2022/02/19 00:43:44;;;;;;;9.35;4.40;;;;;;;9.13;56.01;95690.88;1781262;79;27218;-93
2022/02/19 00:46:12;;;;;;;6.33;3.92;;;;;;;9.16;56.07;95694.95;1781169;79;25765;-96
2022/02/19 00:48:38;;;;;;;10.20;4.30;;;;;;;9.18;56.07;95704.92;1781185;79;25361;-94
2022/02/19 00:51:05;;;;;;;5.67;3.47;;;;;;;9.20;56.04;95704.16;1781132;79;26353;-94
2022/02/19 00:53:32;;;;;;;6.53;4.08;;;;;;;9.22;56.13;95704.20;1781191;79;25480;-93
2022/02/19 00:55:58;;;;;;;8.28;4.30;;;;;;;9.23;56.14;95721.18;1781200;79;27261;-93
2022/02/19 00:58:25;;;;;;;10.13;4.20;;;;;;;9.26;56.15;95740.89;1780997;79;25645;-94
2022/02/19 01:00:52;;;;;;;6.25;3.85;;;;;;;9.29;56.17;95756.57;1781260;79;25760;-92
2022/02/19 01:03:19;;;;;;;9.28;4.55;;;;;;;9.31;56.23;95736.92;1781165;79;25694;-89
2022/02/19 01:05:45;;;;;;;6.70;4.08;;;;;;;9.34;56.22;95745.86;1781263;79;25331;-91
2022/02/19 01:08:12;;;;;;;7.10;4.42;;;;;;;9.36;56.25;95739.71;1781171;79;27498;-94
2022/02/19 01:10:38;;;;;;;9.18;4.58;;;;;;;9.37;56.22;95754.28;1780979;79;25221;-91
2022/02/19 01:13:06;;;;;;;5.70;3.65;;;;;;;9.37;56.24;95753.47;1780901;79;25727;-94
2022/02/19 01:15:33;;;;;;;9.43;3.80;;;;;;;9.37;56.33;95752.94;1781086;79;25618;-91
2022/02/19 01:17:59;;;;;;;9.53;4.35;;;;;;;9.38;56.42;95764.53;1788221;78;25700;-93
2022/02/19 01:20:26;;;;;;;11.10;5.05;;;;;;;9.38;56.47;95775.30;1789433;78;27376;-92
2022/02/19 01:22:52;;;;;;;12.58;4.45;;;;;;;9.38;56.48;95771.26;1789500;78;25735;-91
2022/02/19 01:25:19;;;;;;;5.65;4.70;;;;;;;9.38;56.48;95765.34;1789511;78;25354;-92
2022/02/19 01:27:46;;;;;;;8.25;4.28;;;;;;;9.37;56.56;95744.04;1789493;78;25723;-92
2022/02/19 01:30:12;;;;;;;7.95;4.42;;;;;;;9.37;56.58;95746.73;1789539;78;25729;-89
2022/02/19 01:32:39;;;;;;;9.68;4.65;;;;;;;9.35;56.61;95756.93;1789374;78;28439;-92
2022/02/19 01:35:06;;;;;;;9.35;4.53;;;;;;;9.33;56.65;95753.66;1789243;79;26356;-92
2022/02/19 01:37:32;;;;;;;7.10;3.90;;;;;;;9.31;56.73;95767.36;1789408;78;25767;-93
2022/02/19 01:39:59;;;;;;;7.47;4.17;;;;;;;9.29;56.91;95779.45;1789593;79;25534;-93
2022/02/19 01:42:27;;;;;;;13.38;4.35;;;;;;;9.28;56.96;95781.86;1789338;78;25717;-91
2022/02/19 01:44:54;;;;;;;11.45;4.22;;;;;;;9.26;57.02;95802.81;1789668;78;27532;-91
2022/02/19 01:47:21;;;;;;;7.60;4.67;;;;;;;9.24;57.24;95814.35;1789300;78;25298;-90
2022/02/19 01:49:48;;;;;;;9.60;4.58;;;;;;;9.23;57.40;95822.95;1789506;78;25843;-94
2022/02/19 01:52:18;;;;;;;10.40;4.30;;;;;;;9.20;57.64;95846.84;1789623;78;26445;-91
2022/02/19 01:54:46;;;;;;;9.48;4.35;;;;;;;9.17;57.81;95858.11;1789566;78;25748;-90
2022/02/19 01:57:13;;;;;;;11.12;5.05;;;;;;;9.15;57.88;95889.31;1789475;78;27361;-88
2022/02/19 01:59:41;;;;;;;6.10;3.75;;;;;;;9.12;58.07;95905.11;1789290;79;26338;-88
2022/02/19 02:02:09;;;;;;;7.55;3.72;;;;;;;9.08;58.73;95850.11;1789337;78;26557;-91
2022/02/19 02:04:36;;;;;;;6.42;3.50;;;;;;;8.99;59.15;95807.44;1789494;79;26225;-91
2022/02/19 02:07:04;;;;;;;6.75;4.00;;;;;;;8.95;59.33;95797.38;1789593;78;25748;-87
2022/02/19 02:09:32;;;;;;;9.68;4.30;;;;;;;8.94;59.51;95813.23;1789565;78;27321;-93
2022/02/19 02:11:59;;;;;;;8.58;4.03;;;;;;;8.91;59.68;95855.44;1789381;78;25744;-93
2022/02/19 02:14:25;;;;;;;7.87;4.50;;;;;;;8.84;60.04;95862.81;1789271;78;25638;-91
2022/02/19 02:16:52;;;;;;;8.53;4.60;;;;;;;8.78;60.24;95855.70;1789160;78;26645;-94
2022/02/19 02:19:18;;;;;;;9.25;4.40;;;;;;;8.70;60.56;95873.02;1789647;79;25718;-94
2022/02/19 02:21:45;;;;;;;7.65;3.75;;;;;;;8.63;60.86;95883.09;1789662;78;27399;-94
2022/02/19 02:24:12;;;;;;;7.15;4.03;;;;;;;8.59;61.01;95890.81;1789732;78;25757;-93
2022/02/19 02:26:40;;;;;;;7.90;4.00;;;;;;;8.56;61.26;95894.52;1789693;78;25749;-92
2022/02/19 02:29:07;;;;;;;5.55;3.25;;;;;;;8.52;61.26;95900.06;1789688;78;25914;-91
2022/02/19 02:31:33;;;;;;;10.68;4.47;;;;;;;8.46;61.72;95880.30;1789642;78;25511;-94
2022/02/19 02:34:01;;;;;;;8.98;4.35;;;;;;;8.43;61.99;95876.75;1789059;78;28073;-91
2022/02/19 02:36:27;;;;;;;6.28;4.12;;;;;;;8.39;62.14;95880.13;1789316;78;26486;-91
2022/02/19 02:38:54;;;;;;;7.28;3.70;;;;;;;8.36;62.19;95869.31;1800537;78;25287;-90
2022/02/19 02:41:21;;;;;;;6.40;3.47;;;;;;;8.35;62.37;95873.58;1821808;77;25728;-90
2022/02/19 02:43:48;;;;;;;4.78;3.30;;;;;;;8.32;62.55;95878.11;1821837;77;25851;-90
2022/02/19 02:46:14;;;;;;;5.70;3.10;;;;;;;8.29;62.67;95897.64;1821832;77;28396;-93
2022/02/19 02:48:41;;;;;;;3.25;2.47;;;;;;;8.29;62.67;95898.98;1821655;77;25951;-91
2022/02/19 02:51:07;;;;;;;4.33;2.83;;;;;;;8.27;62.62;95906.47;1821780;77;25891;-90
2022/02/19 02:53:34;;;;;;;3.25;2.35;;;;;;;8.26;62.46;95894.07;1821269;77;25664;-91
2022/02/19 02:56:01;;;;;;;4.72;2.12;;;;;;;8.26;62.44;95902.14;1821543;77;25830;-87
2022/02/19 02:58:28;;;;;;;3.08;2.12;;;;;;;8.25;62.31;95899.16;1821740;77;27515;-82
2022/02/19 03:00:54;;;;;;;2.90;2.15;;;;;;;8.23;62.25;95909.31;1821651;77;25707;-87
2022/02/19 03:03:21;;;;;;;4.80;2.58;;;;;;;8.21;62.19;95904.69;1821734;77;25707;-90
2022/02/19 03:05:47;;;;;;;4.45;2.25;;;;;;;8.21;62.21;95893.94;1821621;77;25620;-83
2022/02/19 03:08:14;;;;;;;6.12;2.47;;;;;;;8.19;62.13;95901.97;1821822;77;25694;-86
2022/02/19 03:10:41;;;;;;;4.08;2.27;;;;;;;8.17;62.07;95888.76;1821798;77;27980;-91
2022/02/19 03:13:07;;;;;;;2.60;2.27;;;;;;;8.15;61.95;95906.16;1821562;77;26079;-87
2022/02/19 03:15:34;;;;;;;4.80;2.50;;;;;;;8.15;61.86;95911.02;1821678;77;25287;-85
2022/02/19 03:18:00;;;;;;;4.05;2.10;;;;;;;8.14;61.78;95921.47;1816309;77;25731;-92
2022/02/19 03:20:27;;;;;;;4.60;2.10;;;;;;;8.14;61.70;95913.92;1813120;77;25760;-89
2022/02/19 03:22:54;;;;;;;4.75;2.45;;;;;;;8.13;61.65;95912.29;1813100;77;27468;-92
2022/02/19 03:25:21;;;;;;;4.92;2.02;;;;;;;8.12;61.58;95935.66;1812861;77;25697;-90
2022/02/19 03:27:47;;;;;;;2.65;2.02;;;;;;;8.12;61.65;95935.66;1813111;77;25742;-89
2022/02/19 03:30:14;;;;;;;3.35;2.00;;;;;;;8.07;61.56;95934.20;1813107;77;26527;-85
2022/02/19 03:32:42;;;;;;;3.40;2.30;;;;;;;8.06;61.47;95943.31;1813092;77;25672;-87
2022/02/19 03:35:09;;;;;;;5.00;2.25;;;;;;;8.04;61.41;95953.47;1813030;77;27223;-92
2022/02/19 03:37:38;;;;;;;2.62;2.05;;;;;;;8.04;61.32;95940.03;1813078;77;25772;-85
2022/02/19 03:40:07;;;;;;;4.17;2.10;;;;;;;8.03;61.17;95967.95;1813051;77;25851;-85
2022/02/19 03:42:39;;;;;;;3.33;1.92;;;;;;;8.01;61.12;95963.33;1813023;78;25371;-90
2022/02/19 03:45:11;;;;;;;2.65;1.82;;;;;;;8.01;61.09;95970.05;1813235;77;25466;-90
2022/02/19 03:47:38;;;;;;;3.98;2.67;;;;;;;8.01;60.96;95974.08;1813486;77;28177;-83
2022/02/19 03:50:07;;;;;;;5.08;2.42;;;;;;;8.02;60.88;95982.44;1809761;77;25684;-92
2022/02/19 03:52:35;;;;;;;3.27;1.82;;;;;;;8.01;60.82;95990.73;1813105;77;25693;-91
2022/02/19 03:55:02;;;;;;;3.20;1.98;;;;;;;8.00;60.73;95979.16;1812786;77;25709;-91
2022/02/19 03:57:30;;;;;;;3.02;2.00;;;;;;;7.99;60.62;95984.23;1812534;77;25673;-92
2022/02/19 03:59:57;;;;;;;4.53;1.87;;;;;;;7.98;60.51;95990.66;1813040;77;27299;-90
2022/02/19 04:02:23;;;;;;;3.30;1.90;;;;;;;7.97;60.46;95999.76;1812982;77;26244;-91
2022/02/19 04:04:50;;;;;;;2.62;2.15;;;;;;;7.94;60.31;96002.92;1813147;77;25715;-92
2022/02/19 04:07:17;;;;;;;3.90;1.90;;;;;;;7.92;60.28;96002.33;1813113;77;26379;-90
2022/02/19 04:09:43;;;;;;;4.45;2.00;;;;;;;7.91;60.13;96014.13;1813059;77;26019;-89
2022/02/19 04:12:10;;;;;;;3.55;1.92;;;;;;;7.91;59.76;96023.53;1813177;79;27967;-90
2022/02/19 04:14:37;;;;;;;3.40;1.87;;;;;;;7.91;59.50;96022.19;1813022;77;25772;-91
2022/02/19 04:17:04;;;;;;;3.85;1.60;;;;;;;7.90;59.12;96013.83;1813147;77;25693;-92
2022/02/19 04:19:30;;;;;;;2.90;2.00;;;;;;;7.92;58.65;96011.73;1822058;77;25945;-87
2022/02/19 04:21:57;;;;;;;3.30;1.77;;;;;;;7.92;58.35;96015.24;1822388;77;25637;-91
2022/02/19 04:24:24;;;;;;;4.00;1.75;;;;;;;7.93;58.27;96012.03;1822283;77;27529;-92
2022/02/19 04:26:50;;;;;;;3.08;1.70;;;;;;;7.91;58.05;96013.60;1822281;77;25809;-91
2022/02/19 04:29:17;;;;;;;4.08;1.98;;;;;;;7.91;57.85;96020.31;1822270;77;25696;-91
2022/02/19 04:31:43;;;;;;;3.90;1.60;;;;;;;7.90;57.60;96007.93;1822319;77;26494;-89
2022/02/19 04:34:10;;;;;;;3.22;1.75;;;;;;;7.91;57.44;96011.44;1822340;77;25707;-90
2022/02/19 04:36:36;;;;;;;4.50;1.95;;;;;;;7.90;57.15;96012.48;1822415;77;28126;-88
2022/02/19 04:39:03;;;;;;;2.77;1.32;;;;;;;7.88;56.72;96029.34;1822259;77;25706;-93
2022/02/19 04:41:30;;;;;;;4.35;1.40;;;;;;;7.86;56.26;96036.81;1822327;78;25750;-91
2022/02/19 04:43:56;;;;;;;4.45;1.30;;;;;;;7.84;55.90;96029.53;1822376;77;25789;-92
2022/02/19 04:46:23;;;;;;;2.20;1.45;;;;;;;7.85;55.73;96023.08;1822349;77;25727;-93
2022/02/19 04:48:49;;;;;;;2.40;1.20;;;;;;;7.88;55.87;96048.16;1822213;77;27487;-92
2022/02/19 04:51:16;;;;;;;2.92;1.17;;;;;;;7.88;54.84;96048.16;1822261;77;25747;-93
2022/02/19 04:53:42;;;;;;;2.45;1.12;;;;;;;7.89;54.09;96056.52;1822321;77;26371;-91
2022/02/19 04:56:10;;;;;;;2.80;1.05;;;;;;;7.89;53.69;96053.83;1822384;77;26119;-92
2022/02/19 04:58:37;;;;;;;2.22;1.30;;;;;;;7.90;53.41;96076.97;1822252;77;25735;-93
2022/02/19 05:01:03;;;;;;;4.42;1.02;;;;;;;7.90;52.89;96076.97;1822248;77;27397;-91
2022/02/19 05:03:30;;;;;;;1.87;1.02;;;;;;;7.91;53.00;96075.92;1822177;77;25760;-91
2022/02/19 05:05:56;;;;;;;1.82;1.00;;;;;;;7.90;52.70;96091.22;1822155;77;25795;-93
2022/02/19 05:08:23;;;;;;;4.17;1.50;;;;;;;7.87;51.43;96074.72;1822374;77;25410;-90
2022/02/19 05:10:50;;;;;;;1.90;1.00;;;;;;;7.86;51.54;96064.50;1792031;78;25274;-92
2022/02/19 05:13:16;;;;;;;3.22;1.17;;;;;;;7.86;51.25;96062.33;1790403;79;28165;-94
2022/02/19 05:15:43;;;;;;;1.98;1.20;;;;;;;7.88;51.30;96065.09;1789748;79;25249;-91
2022/02/19 05:18:09;;;;;;;3.40;1.50;;;;;;;7.87;51.13;96079.57;1789504;79;25663;-95
2022/02/19 05:20:38;;;;;;;3.58;1.35;;;;;;;7.86;50.90;96063.67;1789879;78;26432;-92
2022/02/19 05:23:05;;;;;;;3.87;2.22;;;;;;;7.83;50.74;96058.26;1790023;79;25747;-83
2022/02/19 05:25:31;;;;;;;3.65;1.90;;;;;;;7.80;50.60;96051.16;1790081;78;28159;-86
2022/02/19 05:27:58;;;;;;;2.20;1.30;;;;;;;7.81;50.30;96059.52;1789932;79;25673;-92
2022/02/19 05:30:25;;;;;;;2.25;1.25;;;;;;;7.77;49.79;96060.48;1789880;79;25708;-87
2022/02/19 05:32:51;;;;;;;2.52;1.60;;;;;;;7.74;49.44;96057.42;1790047;78;26084;-93
2022/02/19 05:35:18;;;;;;;3.35;1.98;;;;;;;7.72;49.46;96055.52;1789986;78;25247;-92
2022/02/19 05:37:44;;;;;;;3.25;1.55;;;;;;;7.71;49.27;96061.94;1790019;78;27596;-94
2022/02/19 05:40:11;;;;;;;3.30;2.20;;;;;;;7.67;49.25;96059.39;1790064;79;26239;-93
2022/02/19 05:42:38;;;;;;;4.22;2.12;;;;;;;7.64;49.24;96058.48;1790090;78;25242;-94
2022/02/19 05:45:06;;;;;;;7.15;4.30;;;;;;;7.63;49.18;96071.62;1790019;78;25962;-86
2022/02/19 05:47:32;;;;;;;4.25;2.40;;;;;;;7.61;49.08;96067.02;1790188;79;25779;-94
2022/02/19 05:49:59;;;;;;;4.92;1.77;;;;;;;7.57;48.99;96072.83;1790102;78;27304;-84
2022/02/19 05:52:25;;;;;;;6.20;2.77;;;;;;;7.53;49.05;96081.55;1789902;79;25281;-94
2022/02/19 05:54:55;;;;;;;3.85;2.10;;;;;;;7.48;48.88;96071.50;1790119;78;25617;-96
2022/02/19 05:57:23;;;;;;;4.85;2.12;;;;;;;7.47;48.62;96071.20;1789936;79;26199;-89
2022/02/19 05:59:51;;;;;;;2.37;1.30;;;;;;;7.47;48.46;96088.66;1790003;79;25628;-90
2022/02/19 06:02:19;;;;;;;3.58;1.87;;;;;;;7.45;48.18;96082.68;1819401;77;28176;-95
2022/02/19 06:04:45;;;;;;;3.70;1.72;;;;;;;7.43;47.94;96080.73;1822139;77;25763;-93
2022/02/19 06:07:12;;;;;;;3.35;1.20;;;;;;;7.42;47.43;96069.70;1822284;77;26504;-92
2022/02/19 06:09:39;;;;;;;5.12;2.25;;;;;;;7.44;46.99;96082.38;1822266;77;26293;-91
2022/02/19 06:12:07;;;;;;;4.15;1.40;;;;;;;7.45;46.71;96076.48;1822056;77;25718;-90
2022/02/19 06:14:33;;;;;;;3.37;1.55;;;;;;;7.47;46.59;96098.05;1822238;77;27415;-92
2022/02/19 06:17:00;;;;;;;4.08;2.33;;;;;;;7.47;46.31;96102.08;1822261;77;25715;-94
2022/02/19 06:19:26;;;;;;;2.83;2.30;;;;;;;7.49;45.88;96104.52;1815173;77;25688;-95
2022/02/19 06:21:53;;;;;;;4.65;3.98;;;;;;;7.49;45.67;96103.99;1812825;77;25728;-86
2022/02/19 06:24:20;;;;;;;3.87;3.15;;;;;;;7.51;45.81;96129.28;1813055;77;25656;-90
2022/02/19 06:26:46;;;;;;;4.92;1.35;;;;;;;7.52;45.59;96115.64;1813023;77;27553;-89
2022/02/19 06:29:13;;;;;;;3.33;1.37;;;;;;;7.53;44.65;96117.28;1812855;77;26242;-85
2022/02/19 06:31:40;;;;;;;2.87;1.20;;;;;;;7.55;44.23;96125.94;1813117;77;25739;-84
2022/02/19 06:34:06;;;;;;;1.45;0.90;;;;;;;7.55;44.10;96121.91;1813120;77;25775;-83
2022/02/19 06:36:33;;;;;;;30.17;10.38;;;;;;;7.56;44.16;96131.61;1813246;77;25684;-90
2022/02/19 06:39:00;;;;;;;5.70;1.95;;;;;;;7.57;44.43;96120.34;1813244;77;27333;-92
2022/02/19 06:41:26;;;;;;;3.92;1.22;;;;;;;7.57;43.77;96141.31;1813424;77;25810;-94
2022/02/19 06:43:53;;;;;;;1.85;0.85;;;;;;;7.60;43.41;96142.73;1813299;77;25723;-84
2022/02/19 06:46:19;;;;;;;2.42;0.82;;;;;;;7.64;43.15;96140.41;1813171;77;25748;-86
2022/02/19 06:48:46;;;;;;;2.67;1.25;;;;;;;7.68;42.92;96161.75;1813455;77;25598;-93
2022/02/19 06:51:13;;;;;;;3.85;2.15;;;;;;;7.73;43.59;96153.86;1813341;77;27512;-85
2022/02/19 06:53:41;;;;;;;6.72;2.80;;;;;;;7.77;43.83;96160.41;1813162;77;26048;-90
2022/02/19 06:56:07;;;;;;;8.20;3.47;;;;;;;7.81;43.37;96156.23;1813235;77;25685;-88
2022/02/19 06:58:34;;;;;;;3.62;1.47;;;;;;;7.83;43.31;96163.03;1813225;77;25748;-87
2022/02/19 07:01:01;;;;;;;2.60;1.00;;;;;;;7.87;42.56;96158.01;1813274;77;25740;-84
2022/02/19 07:03:28;;;;;;;2.10;1.20;;;;;;;7.90;41.93;96165.63;1813244;77;27227;-91
2022/02/19 07:05:54;;;;;;;4.17;1.40;;;;;;;7.94;42.19;96141.30;1812905;77;25748;-87
2022/02/19 07:08:21;;;;;;;5.40;1.40;;;;;;;7.99;41.91;96158.89;1813172;77;25830;-89
2022/02/19 07:10:48;;;;;;;4.05;0.90;;;;;;;8.06;41.22;96170.92;1813212;77;25759;-90
2022/02/19 07:13:15;;;;;;;4.65;1.47;;;;;;;8.10;41.05;96160.00;1813178;77;26544;-87
2022/02/19 07:15:42;;;;;;;5.65;1.65;;;;;;;8.14;40.95;96161.20;1812873;77;27398;-90
2022/02/19 07:18:08;;;;;;;7.47;2.30;;;;;;;8.18;40.67;96173.98;1813420;77;25661;-90
2022/02/19 07:20:37;;;;;;;4.17;1.60;;;;;;;8.23;40.93;96165.21;1821773;77;25751;-93
2022/02/19 07:23:04;;;;;;;4.05;1.60;;;;;;;8.28;39.89;96179.62;1821826;77;26153;-86
2022/02/19 07:25:31;;;;;;;4.85;1.10;;;;;;;8.34;40.13;96174.41;1821961;77;25739;-89
2022/02/19 07:27:57;;;;;;;5.58;1.85;;;;;;;8.38;40.09;96176.43;1821772;77;27505;-91
2022/02/19 07:30:24;;;;;;;2.98;0.82;;;;;;;8.40;40.32;96190.99;1821739;77;25691;-90
2022/02/19 07:32:52;;;;;;;2.75;1.02;;;;;;;8.38;38.24;96179.64;1821800;77;25731;-87
2022/02/19 07:35:20;;;;;;;3.10;0.98;;;;;;;8.30;36.95;96197.70;1821637;77;25811;-92
2022/02/19 07:37:48;;;;;;;3.55;1.00;;;;;;;8.26;37.82;96213.98;1821930;77;25735;-88
2022/02/19 07:40:15;;;;;;;4.30;1.12;;;;;;;8.23;37.60;96198.30;1821829;77;27350;-85
2022/02/19 07:42:41;;;;;;;3.47;1.20;;;;;;;8.12;37.48;96268.94;1821855;77;27006;-93
2022/02/19 07:45:09;;;;;;;6.33;2.42;;;;;;;8.01;36.77;96221.30;1821836;77;25728;-90
2022/02/19 07:47:36;;;;;;;5.75;1.50;;;;;;;8.00;37.59;96234.44;1821815;78;26246;-86
2022/02/19 07:58:18;;;;;;;4.20;1.30;;;;;;;8.06;37.55;96248.34;1821767;77;25764;-85
2022/02/19 08:00:53;;;;;;;12.13;5.28;;;;;;;8.09;36.64;96233.09;1821770;77;25708;-87
2022/02/19 08:03:23;;;;;;;5.17;1.05;;;;;;;8.20;37.20;96235.58;1821993;77;25762;-87
2022/02/19 08:05:52;;;;;;;7.30;1.32;;;;;;;8.39;36.59;96239.09;1821746;77;27345;-84
2022/02/19 08:08:19;;;;;;;5.40;2.05;;;;;;;8.57;37.21;96241.77;1821580;77;25701;-89
2022/02/19 08:10:46;;;;;;;2.80;0.98;;;;;;;8.73;37.38;96250.54;1821746;77;25666;-88
2022/02/19 08:13:15;;;;;;;3.08;1.20;;;;;;;8.91;37.56;96249.16;1821733;77;25818;-88
2022/02/19 08:15:43;;;;;;;2.98;0.98;;;;;;;9.11;37.65;96231.36;1821760;77;25643;-88
2022/02/19 08:18:12;;;;;;;4.72;1.40;;;;;;;9.27;36.79;96220.46;1821678;77;28389;-83
2022/02/19 08:20:42;;;;;;;7.95;1.80;;;;;;;9.33;36.11;96294.92;1813082;78;25748;-91
2022/02/19 08:23:10;;;;;;;5.85;1.62;;;;;;;9.35;35.47;96215.55;1813224;79;25752;-90
2022/02/19 08:25:38;;;;;;;4.70;1.55;;;;;;;9.39;35.69;96231.55;1813129;77;25787;-84
2022/02/19 08:28:06;;;;;;;3.58;2.20;;;;;;;9.48;35.38;96246.83;1813196;77;25780;-92
2022/02/19 08:30:36;;;;;;;7.17;2.00;;;;;;;9.52;34.65;96241.80;1813088;77;27580;-89
2022/02/19 08:33:04;;;;;;;13.00;4.65;;;;;;;9.58;35.51;96237.64;1812359;77;25664;-90
2022/02/19 08:35:31;;;;;;;9.95;4.20;;;;;;;9.72;35.61;96247.14;1813252;77;25846;-90
2022/02/19 08:37:57;;;;;;;8.85;2.30;;;;;;;9.82;35.46;96279.42;1812982;78;25751;-90
2022/02/19 08:40:25;;;;;;;7.03;1.22;;;;;;;9.96;35.29;96276.79;1813255;77;25677;-87
2022/02/19 08:42:52;;;;;;;3.20;1.22;;;;;;;10.00;34.01;96258.58;1813069;77;27343;-86
2022/02/19 08:45:19;;;;;;;3.27;0.95;;;;;;;10.07;34.41;96306.97;1812851;77;25726;-86
2022/02/19 08:47:48;;;;;;;3.72;1.67;;;;;;;10.09;33.36;96285.47;1813055;77;25705;-90
2022/02/19 08:50:16;;;;;;;6.53;1.70;;;;;;;10.06;33.81;96268.92;1813116;77;25728;-87
2022/02/19 08:52:46;;;;;;;8.05;1.27;;;;;;;10.14;33.13;96275.86;1813195;77;25728;-88
2022/02/19 08:55:15;;;;;;;3.98;1.12;;;;;;;10.25;33.61;96266.97;1813076;78;26896;-91
2022/02/19 08:57:42;;;;;;;2.98;1.00;;;;;;;10.38;33.54;96303.95;1812958;77;25773;-88
2022/02/19 09:00:12;;;;;;;5.25;1.55;;;;;;;10.43;33.37;96273.02;1813136;77;25738;-87
2022/02/19 09:02:40;;;;;;;4.95;1.10;;;;;;;10.58;32.97;96279.80;1813063;77;25822;-91
2022/02/19 09:05:10;;;;;;;2.95;1.20;;;;;;;10.70;32.60;96268.44;1813169;77;26107;-94
2022/02/19 09:07:39;;;;;;;6.17;1.82;;;;;;;10.67;31.83;96266.21;1813082;77;27504;-92
2022/02/19 09:10:08;;;;;;;3.92;1.40;;;;;;;10.53;32.73;96297.22;1813046;77;25882;-92
2022/02/19 09:12:35;;;;;;;8.55;1.80;;;;;;;10.84;32.67;96280.60;1813241;77;25855;-90
2022/02/19 09:15:04;;;;;;;2.55;0.88;;;;;;;11.00;30.29;96303.30;1813121;77;25692;-91
2022/02/19 09:17:31;;;;;;;3.35;0.90;;;;;;;10.83;30.84;96300.55;1813120;78;25717;-87
2022/02/19 09:19:58;;;;;;;3.17;1.52;;;;;;;10.86;31.75;96323.03;1817387;77;27455;-89
2022/02/19 09:22:24;;;;;;;2.85;1.12;;;;;;;10.98;31.66;96306.27;1821600;77;26020;-88
2022/02/19 09:24:51;;;;;;;6.08;1.50;;;;;;;11.25;31.88;96311.88;1821719;77;25732;-89
2022/02/19 09:27:17;;;;;;;3.67;1.80;;;;;;;11.39;32.03;96328.63;1821714;78;25740;-89
2022/02/19 09:29:44;;;;;;;3.83;1.57;;;;;;;11.46;31.47;96314.45;1821756;77;25743;-88
2022/02/19 09:32:11;;;;;;;2.72;1.10;;;;;;;11.59;32.02;96330.89;1821881;77;27383;-87
2022/02/19 09:34:38;;;;;;;3.37;1.60;;;;;;;11.24;31.04;96344.53;1821637;77;25717;-89
2022/02/19 09:37:04;;;;;;;5.08;1.75;;;;;;;11.19;30.92;96348.80;1821776;77;26138;-88
2022/02/19 09:39:31;;;;;;;4.10;1.50;;;;;;;11.12;31.58;96350.80;1821359;77;26225;-91
2022/02/19 09:42:02;;;;;;;5.00;1.20;;;;;;;11.34;31.42;96344.23;1821717;77;25792;-90
2022/02/19 09:44:27;;;;;;;3.72;1.52;;;;;;;11.53;31.88;96366.45;1822047;77;27538;-87
2022/02/19 09:46:56;;;;;;;5.05;1.52;;;;;;;11.59;31.30;96370.08;1821709;77;25779;-90
2022/02/19 09:49:22;;;;;;;3.95;1.45;;;;;;;11.45;30.35;96363.62;1789747;77;25891;-86
2022/02/19 09:51:49;;;;;;;4.00;1.50;;;;;;;11.34;30.98;96363.14;1821874;77;26084;-86
2022/02/19 09:54:16;;;;;;;4.60;1.50;;;;;;;11.55;30.80;96373.26;1821789;77;25732;-88
2022/02/19 09:56:43;;;;;;;2.60;1.27;;;;;;;11.81;31.25;96387.27;1821584;77;27342;-90
2022/02/19 09:59:12;;;;;;;4.83;1.05;;;;;;;12.18;29.95;96361.92;1821699;77;25751;-93
2022/02/19 10:01:39;;;;;;;3.22;1.10;;;;;;;11.75;29.47;96370.12;1821862;77;25255;-88
2022/02/19 10:04:06;;;;;;;3.42;1.30;;;;;;;11.69;30.20;96399.46;1821647;77;25859;-86
2022/02/19 10:06:39;;;;;;;6.67;1.60;;;;;;;11.92;30.57;96405.84;1821673;77;25724;-94
2022/02/19 10:09:16;;;;;;;7.40;1.35;;;;;;;12.18;29.25;96410.63;1821939;77;26782;-90
2022/02/19 10:11:44;;;;;;;2.77;1.25;;;;;;;12.13;29.10;96402.41;1821854;78;26458;-88
2022/02/19 10:14:24;;;;;;;4.03;1.57;;;;;;;12.20;29.37;96399.81;1821940;77;25227;-89
2022/02/19 10:17:16;;;;;;;4.15;1.70;;;;;;;12.23;29.33;96405.27;1821835;77;26391;-87
2022/02/19 10:19:57;;;;;;;5.25;1.30;;;;;;;12.24;29.12;96423.16;1822087;77;25673;-84
2022/02/19 10:22:34;;;;;;;4.67;1.22;;;;;;;12.43;29.05;96479.22;1821755;77;27395;-88
2022/02/19 10:25:08;;;;;;;4.75;1.62;;;;;;;12.35;28.03;96449.31;1821918;77;25729;-89
2022/02/19 10:27:51;;;;;;;4.17;1.47;;;;;;;12.16;28.68;96423.56;1822190;77;25732;-92
2022/02/19 10:30:20;;;;;;;2.57;1.00;;;;;;;12.08;28.24;96434.77;1822227;77;25385;-87
2022/02/19 10:33:06;;;;;;;4.95;1.98;;;;;;;12.06;29.10;96445.04;1821654;77;25247;-85
2022/02/19 10:35:38;;;;;;;4.40;1.30;;;;;;;11.95;27.71;96428.34;1821311;77;27480;-92
2022/02/19 10:38:11;;;;;;;5.05;1.92;;;;;;;11.87;29.03;96423.60;1821861;78;25752;-89
2022/02/19 10:40:52;;;;;;;4.85;1.45;;;;;;;12.10;28.84;96450.23;1821959;77;25658;-87
2022/02/19 10:43:31;;;;;;;5.75;1.60;;;;;;;12.17;28.03;96463.09;1821872;77;25763;-91
2022/02/19 10:46:01;;;;;;;6.67;1.42;;;;;;;12.15;27.41;96459.27;1821963;77;25767;-87
2022/02/19 10:48:36;;;;;;;3.77;1.25;;;;;;;12.17;27.11;96450.38;1821754;77;27375;-88
2022/02/19 10:51:18;;;;;;;3.75;1.40;;;;;;;12.37;28.29;96450.42;1821664;77;25740;-88
2022/02/19 10:53:58;;;;;;;4.13;1.43;;;;;;;12.80;28.49;96459.23;1821795;77;25751;-92
2022/02/19 10:56:27;;;;;;;3.98;1.32;;;;;;;13.09;27.85;96454.48;1789607;78;25590;-90
2022/02/19 10:59:09;;;;;;;2.27;1.35;;;;;;;13.17;27.67;96441.34;1821927;77;25668;-87
2022/02/19 11:01:52;;;;;;;3.98;1.40;;;;;;;13.32;27.14;96483.56;1821979;77;28046;-93
2022/02/19 11:04:21;;;;;;;6.00;1.25;;;;;;;13.21;26.02;96485.03;1822032;78;25554;-91
2022/02/19 11:06:49;;;;;;;3.25;1.17;;;;;;;13.23;26.52;96486.43;1821795;77;25666;-91
2022/02/19 11:09:17;;;;;;;3.67;1.45;;;;;;;13.31;26.40;96481.92;1821974;78;25729;-89
2022/02/19 11:11:46;;;;;;;4.25;1.22;;;;;;;13.02;26.21;96473.64;1806971;78;25597;-87
2022/02/19 11:14:16;;;;;;;5.12;1.50;;;;;;;13.20;26.89;96489.63;1790433;78;28176;-87
2022/02/19 11:16:43;;;;;;;3.80;1.40;;;;;;;13.55;27.28;96483.86;1790523;78;25764;-89
2022/02/19 11:19:10;;;;;;;2.95;1.20;;;;;;;13.80;26.96;96493.37;1790567;78;25785;-87
2022/02/19 11:21:38;;;;;;;3.17;1.10;;;;;;;13.92;27.06;96503.02;1789241;78;25776;-93
2022/02/19 11:24:08;;;;;;;4.37;1.75;;;;;;;13.84;26.25;96496.69;1791486;78;25693;-92
2022/02/19 11:26:35;;;;;;;3.60;1.42;;;;;;;13.69;26.73;96524.44;1806732;77;27434;-87
2022/02/19 11:29:19;;;;;;;5.12;1.25;;;;;;;13.84;26.69;96494.52;1762551;78;25834;-89
2022/02/19 11:31:47;;;;;;;7.87;1.82;;;;;;;13.95;26.96;96517.43;1787921;78;25773;-93
2022/02/19 11:34:21;;;;;;;5.00;1.60;;;;;;;14.14;26.71;96518.43;1805553;78;25322;-93
2022/02/19 11:36:50;;;;;;;6.35;1.60;;;;;;;14.15;26.73;96513.28;1818926;77;25471;-90
2022/02/19 11:39:17;;;;;;;4.03;1.20;;;;;;;14.00;26.29;96511.25;1807984;77;27423;-90
2022/02/19 11:41:45;;;;;;;3.60;1.10;;;;;;;13.04;25.26;96522.95;1715564;80;25896;-91
2022/02/19 11:44:23;;;;;;;5.28;2.10;;;;;;;12.59;26.22;96532.53;1723236;81;25780;-93
2022/02/19 11:46:53;;;;;;;6.75;1.35;;;;;;;12.24;25.11;96520.55;1755155;80;25765;-90
2022/02/19 11:49:28;;;;;;;5.00;1.55;;;;;;;11.97;26.38;96538.43;1755598;80;25797;-88
2022/02/19 11:52:15;;;;;;;4.53;1.42;;;;;;;12.10;26.78;96544.91;1755546;80;27451;-85